Terminal Aerodrome Forecast
Issued by NWS

Home | Current Version | Previous Version | Text Only | Print | Product List | Glossary On
Versions: 1 2 3 4 5 6 7 8 9 10 11 12 13 14 15 16
075
FTUS41 KCAR 301721
TAFHUL
TAF
KHUL 301721Z 3018/3118 32007KT P6SM SCT070
     FM310100 VRB03KT P6SM FEW070
     FM310730 VRB02KT 3SM BR FEW250
     FM311030 VRB02KT P6SM SCT250
     FM311400 32006KT P6SM BKN220=

USA.gov is the U.S. government's official web portal to all federal, state and local government web resources and services.